createdAt,value
2023-01-18T00:01:11.560Z,941.89
2023-01-18T00:06:42.945Z,940.85
2023-01-18T00:12:14.648Z,940.92
2023-01-18T00:17:46.560Z,940.85
2023-01-18T00:23:22.740Z,941.24
2023-01-18T00:28:54.708Z,939.61
2023-01-18T00:34:26.041Z,940.0
2023-01-18T00:39:58.517Z,939.23
2023-01-18T00:45:29.563Z,939.22
2023-01-18T00:51:01.359Z,939.9
2023-01-18T00:56:32.822Z,940.19
2023-01-18T01:02:05.430Z,941.52
2023-01-18T01:07:36.280Z,940.1
2023-01-18T01:13:07.983Z,939.95
2023-01-18T01:18:39.827Z,939.45
2023-01-18T01:24:16.269Z,940.04
2023-01-18T01:29:47.772Z,941.43
2023-01-18T01:35:19.492Z,940.66
2023-01-18T01:40:51.382Z,941.54
2023-01-18T01:46:23.016Z,941.0
2023-01-18T01:51:54.684Z,940.92
2023-01-18T01:57:26.630Z,940.82
2023-01-18T02:02:59.701Z,940.47
2023-01-18T02:08:29.830Z,940.27
2023-01-18T02:14:01.725Z,941.66
2023-01-18T02:19:33.469Z,941.94
2023-01-18T02:25:11.508Z,941.93
2023-01-18T02:30:43.435Z,940.78
2023-01-18T02:36:14.949Z,942.19
2023-01-18T02:41:46.504Z,942.09
2023-01-18T02:47:18.549Z,941.45
2023-01-18T02:52:50.200Z,942.36
2023-01-18T02:58:21.628Z,941.38
2023-01-18T03:03:53.541Z,942.09
2023-01-18T03:09:25.138Z,941.08
2023-01-18T03:14:57.032Z,942.22
2023-01-18T03:20:28.569Z,941.68
2023-01-18T03:26:04.900Z,941.58
2023-01-18T03:31:36.596Z,941.27
2023-01-18T03:37:08.214Z,942.41
2023-01-18T03:42:39.939Z,943.0
2023-01-18T03:48:11.728Z,942.7
2023-01-18T03:53:43.695Z,943.25
2023-01-18T03:59:15.754Z,942.86
2023-01-18T04:04:47.167Z,942.06
2023-01-18T04:10:19.019Z,942.01
2023-01-18T04:15:50.727Z,942.34
2023-01-18T04:21:22.146Z,941.99
2023-01-18T04:27:00.328Z,942.22
2023-01-18T04:32:31.999Z,941.92
2023-01-18T04:38:03.772Z,942.23
2023-01-18T04:43:35.672Z,942.07
2023-01-18T04:49:07.968Z,942.0
2023-01-18T04:54:38.974Z,942.62
2023-01-18T05:00:10.447Z,942.37
2023-01-18T05:05:42.563Z,942.43
2023-01-18T05:11:14.737Z,942.61
2023-01-18T05:16:45.751Z,942.9
2023-01-18T05:22:17.336Z,943.3
2023-01-18T05:27:53.768Z,943.11
2023-01-18T05:33:25.455Z,943.17
2023-01-18T05:38:57.224Z,943.35
2023-01-18T05:44:28.939Z,944.25
2023-01-18T05:50:00.716Z,944.71
2023-01-18T05:55:32.447Z,944.81
2023-01-18T06:01:04.396Z,945.05
2023-01-18T06:06:35.980Z,945.43
2023-01-18T06:12:07.686Z,945.84
2023-01-18T06:17:39.677Z,945.76
2023-01-18T06:23:11.042Z,945.61
2023-01-18T06:28:47.377Z,945.55
2023-01-18T06:34:19.184Z,945.82
2023-01-18T06:39:50.493Z,946.27
2023-01-18T06:45:22.574Z,946.7
2023-01-18T06:50:53.982Z,946.62
2023-01-18T06:56:25.847Z,947.28
2023-01-18T07:01:58.393Z,946.39
2023-01-18T07:07:29.314Z,945.92
2023-01-18T07:13:01.997Z,945.6
2023-01-18T07:18:32.598Z,946.07
2023-01-18T07:24:04.271Z,946.36
2023-01-18T07:29:42.452Z,945.91
2023-01-18T07:35:14.086Z,947.16
2023-01-18T07:40:45.781Z,946.5
2023-01-18T07:46:17.820Z,946.16
2023-01-18T07:51:49.431Z,946.57
2023-01-18T07:57:21.217Z,946.58
2023-01-18T08:02:52.985Z,947.02
2023-01-18T08:08:24.419Z,947.58
2023-01-18T08:13:56.729Z,947.73
2023-01-18T08:19:28.449Z,948.12
2023-01-18T08:25:00.186Z,948.76
2023-01-18T08:30:36.104Z,948.41
2023-01-18T08:36:07.932Z,949.21
2023-01-18T08:41:39.809Z,949.61
2023-01-18T08:47:11.391Z,949.47
2023-01-18T08:52:43.289Z,949.15
2023-01-18T08:58:14.892Z,949.59
2023-01-18T09:03:47.180Z,949.51
2023-01-18T09:09:18.635Z,949.34
2023-01-18T09:14:49.955Z,949.55
2023-01-18T09:20:21.928Z,950.07
2023-01-18T09:25:53.439Z,949.6
2023-01-18T09:31:29.842Z,949.84
2023-01-18T09:37:01.660Z,950.99
2023-01-18T09:42:33.349Z,950.45
2023-01-18T09:48:05.284Z,950.17
2023-01-18T09:53:37.318Z,951.17
2023-01-18T09:59:08.489Z,951.13
2023-01-18T10:04:40.288Z,951.23
2023-01-18T10:10:11.698Z,951.19
2023-01-18T10:15:43.892Z,951.43
2023-01-18T10:21:15.365Z,952.17
2023-01-18T10:26:46.896Z,951.96
2023-01-18T10:32:22.973Z,951.97
2023-01-18T10:37:55.193Z,951.76
2023-01-18T10:43:26.803Z,951.83
2023-01-18T10:48:58.148Z,952.34
2023-01-18T10:54:29.943Z,952.35
2023-01-18T11:00:01.850Z,952.92
2023-01-18T11:05:33.340Z,953.02
2023-01-18T11:11:05.039Z,952.67
2023-01-18T11:16:37.219Z,953.05
2023-01-18T11:22:08.628Z,953.83
2023-01-18T11:27:40.671Z,953.31
2023-01-18T11:33:16.607Z,953.8
2023-01-18T11:38:48.349Z,953.29
2023-01-18T11:44:19.884Z,953.21
2023-01-18T11:49:51.919Z,953.48
2023-01-18T11:55:23.379Z,954.2
2023-01-18T12:00:55.380Z,954.18
2023-01-18T12:06:27.052Z,953.19
2023-01-18T12:12:19.966Z,954.28
2023-01-18T12:17:30.196Z,953.94
2023-01-18T12:23:02.028Z,954.59
2023-01-18T12:28:33.489Z,954.63
2023-01-18T12:34:09.689Z,954.66
2023-01-18T12:39:41.603Z,954.7
2023-01-18T12:45:13.882Z,955.29
2023-01-18T12:50:45.260Z,955.87
2023-01-18T12:56:16.699Z,956.21
2023-01-18T13:01:48.656Z,956.36
2023-01-18T13:07:20.035Z,956.1
2023-01-18T13:12:51.831Z,956.32
2023-01-18T13:18:23.549Z,955.34
2023-01-18T13:23:55.575Z,956.31
2023-01-18T13:29:27.443Z,956.27
2023-01-18T13:35:24.415Z,956.19
2023-01-18T13:40:37.215Z,955.96
2023-01-18T13:46:09.179Z,956.67
2023-01-18T13:51:40.671Z,956.64
2023-01-18T13:57:12.134Z,957.07
2023-01-18T14:02:43.913Z,957.52
2023-01-18T14:08:15.772Z,956.79
2023-01-18T14:13:47.445Z,956.86
2023-01-18T14:19:19.037Z,957.26
2023-01-18T14:24:51.052Z,957.87
2023-01-18T14:30:22.743Z,957.49
2023-01-18T14:35:58.981Z,957.73
2023-01-18T14:41:30.453Z,958.29
2023-01-18T14:47:24.139Z,957.89
2023-01-18T14:52:33.940Z,957.4
2023-01-18T14:58:05.643Z,957.35
2023-01-18T15:03:37.542Z,957.75
2023-01-18T15:09:08.910Z,957.9
2023-01-18T15:14:40.648Z,957.97
2023-01-18T15:20:12.376Z,959.03
2023-01-18T15:25:44.408Z,959.02
2023-01-18T15:31:16.336Z,959.61
2023-01-18T15:36:51.996Z,958.81
2023-01-18T15:42:23.644Z,959.62
2023-01-18T15:47:55.709Z,959.35
2023-01-18T15:53:28.050Z,959.69
2023-01-18T15:58:59.313Z,959.6
2023-01-18T16:04:31.083Z,959.81
2023-01-18T16:10:02.463Z,959.96
2023-01-18T16:15:34.508Z,959.51
2023-01-18T16:21:06.245Z,959.93
2023-01-18T16:26:37.912Z,960.91
2023-01-18T16:32:09.658Z,960.48
2023-01-18T16:37:45.800Z,960.52
2023-01-18T16:43:17.660Z,960.43
2023-01-18T16:48:49.262Z,959.77
2023-01-18T16:54:20.973Z,959.71
2023-01-18T16:59:52.605Z,959.7
2023-01-18T17:05:24.582Z,959.66
2023-01-18T17:10:56.099Z,959.32
2023-01-18T17:16:28.117Z,959.81
2023-01-18T17:21:59.987Z,959.73
2023-01-18T17:27:31.376Z,959.41
2023-01-18T17:33:03.686Z,959.58
2023-01-18T17:38:38.805Z,959.76
2023-01-18T17:44:11.437Z,960.4
2023-01-18T17:49:42.561Z,960.55
2023-01-18T17:55:16.552Z,960.73
2023-01-18T18:00:45.680Z,960.71
2023-01-18T18:06:33.664Z,960.65
2023-01-18T18:11:49.380Z,960.65
2023-01-18T18:17:21.108Z,960.59
2023-01-18T18:22:52.728Z,960.19
2023-01-18T18:28:24.641Z,960.39
2023-01-18T18:33:56.090Z,960.75
2023-01-18T18:39:34.593Z,960.24
2023-01-18T18:45:06.187Z,960.08
2023-01-18T18:50:37.773Z,960.48
2023-01-18T18:56:11.066Z,960.3
2023-01-18T19:01:41.755Z,960.62
2023-01-18T19:07:12.908Z,960.25
2023-01-18T19:12:44.883Z,960.5
2023-01-18T19:18:16.726Z,960.98
2023-01-18T19:23:48.107Z,960.62
2023-01-18T19:29:19.956Z,961.36
2023-01-18T19:34:51.514Z,961.02
2023-01-18T19:40:27.705Z,960.73
2023-01-18T19:45:59.636Z,960.36
2023-01-18T19:51:31.465Z,960.25
2023-01-18T19:57:03.184Z,959.59
2023-01-18T20:02:35.384Z,959.78
2023-01-18T20:08:06.172Z,960.29
2023-01-18T20:13:38.265Z,960.15
2023-01-18T20:19:09.732Z,959.91
2023-01-18T20:24:41.431Z,960.1
2023-01-18T20:30:13.113Z,959.99
2023-01-18T20:35:45.104Z,960.01
2023-01-18T20:41:21.241Z,959.92
2023-01-18T20:46:53.445Z,960.28
2023-01-18T20:52:24.532Z,960.0
2023-01-18T20:57:56.137Z,959.68
2023-01-18T21:03:27.844Z,960.08
2023-01-18T21:08:59.875Z,959.74
2023-01-18T21:14:31.834Z,959.44
2023-01-18T21:20:03.727Z,959.63
2023-01-18T21:25:35.116Z,959.83
2023-01-18T21:31:07.481Z,960.24
2023-01-18T21:36:38.892Z,960.44
2023-01-18T21:42:16.883Z,960.21
2023-01-18T21:47:48.766Z,960.45
2023-01-18T21:53:20.535Z,961.22
2023-01-18T21:58:52.310Z,960.98
2023-01-18T22:04:23.889Z,960.76
2023-01-18T22:10:07.415Z,960.69
2023-01-18T22:15:27.643Z,960.53
2023-01-18T22:20:58.982Z,960.65
2023-01-18T22:26:31.564Z,960.52
2023-01-18T22:32:02.346Z,960.33
2023-01-18T22:37:34.301Z,960.71
2023-01-18T22:43:10.269Z,961.17
2023-01-18T22:48:42.859Z,961.05
2023-01-18T22:54:13.702Z,960.65
2023-01-18T22:59:45.729Z,960.86
2023-01-18T23:05:17.178Z,961.13
2023-01-18T23:10:49.194Z,961.09
2023-01-18T23:16:20.943Z,961.13
2023-01-18T23:21:52.394Z,961.21
2023-01-18T23:27:24.611Z,961.54
2023-01-18T23:32:55.780Z,961.64
2023-01-18T23:38:27.551Z,961.45
2023-01-18T23:44:05.814Z,961.34
2023-01-18T23:49:37.415Z,960.93
2023-01-18T23:55:09.429Z,960.75
